Time;durP1;ratioP1;P1;durP2;ratioP2;P2;SDS_P1;SDS_P2;PMS_P1;PMS_P2;Temp;Humidity;BMP_temperature;BMP_pressure;BME280_temperature;BME280_humidity;BME280_pressure;Samples;Min_cycle;Max_cycle;Signal;HPM_P1;HPM_P2
2022/12/25 00:01:31;;;;;;;105.10;20.25;;;;;;;8.05;100.00;101168.59;4986017;28;20034;-81
2022/12/25 00:03:56;;;;;;;108.75;18.63;;;;;;;7.96;100.00;101136.44;5000331;28;20038;-82
2022/12/25 00:06:22;;;;;;;86.20;18.30;;;;;;;8.16;100.00;101147.91;4997376;28;20114;-82
2022/12/25 00:08:47;;;;;;;103.97;20.67;;;;;;;8.15;100.00;101155.22;4999257;28;20133;-82
2022/12/25 00:11:15;;;;;;;98.93;19.40;;;;;;;8.20;100.00;101150.34;4984542;28;20065;-82
2022/12/25 00:13:41;;;;;;;119.20;20.27;;;;;;;8.24;100.00;101151.03;4999739;28;20026;-82
2022/12/25 00:16:09;;;;;;;112.20;19.75;;;;;;;8.19;100.00;101140.41;4990845;28;20167;-81
2022/12/25 00:18:35;;;;;;;90.30;18.55;;;;;;;8.17;100.00;101139.63;4980883;28;20039;-81
2022/12/25 00:21:03;;;;;;;92.45;19.05;;;;;;;8.19;100.00;101137.69;4986863;28;20050;-81
2022/12/25 00:23:30;;;;;;;89.60;18.95;;;;;;;8.22;100.00;101145.66;4981838;28;20031;-81
2022/12/25 00:25:56;;;;;;;91.13;19.15;;;;;;;8.28;100.00;101144.41;4993426;28;20039;-82
2022/12/25 00:28:22;;;;;;;123.57;18.83;;;;;;;8.24;100.00;101146.44;4999474;28;20118;-82
2022/12/25 00:30:48;;;;;;;101.03;17.83;;;;;;;8.29;100.00;101143.41;5002158;28;20066;-82
2022/12/25 00:33:14;;;;;;;108.15;19.58;;;;;;;8.31;100.00;101133.28;5000948;28;20096;-82
2022/12/25 00:35:39;;;;;;;115.65;21.35;;;;;;;8.34;100.00;101132.22;4970374;28;20030;-83
2022/12/25 00:38:05;;;;;;;83.70;18.35;;;;;;;8.25;100.00;101137.28;4995362;28;20041;-81
2022/12/25 00:40:30;;;;;;;83.10;18.98;;;;;;;8.25;100.00;101136.44;4995721;28;20061;-82
2022/12/25 00:42:56;;;;;;;111.95;19.70;;;;;;;8.29;100.00;101136.09;4981598;28;20501;-82
2022/12/25 00:45:21;;;;;;;106.97;19.33;;;;;;;8.28;100.00;101138.97;4987851;28;20182;-82
2022/12/25 00:47:46;;;;;;;91.93;19.58;;;;;;;8.25;100.00;101130.97;4982619;28;20081;-82
2022/12/25 00:50:12;;;;;;;80.53;18.50;;;;;;;8.31;100.00;101129.69;4982709;28;20038;-82
2022/12/25 00:52:37;;;;;;;84.05;18.15;;;;;;;8.29;100.00;101127.91;4993738;28;20035;-81
2022/12/25 00:55:04;;;;;;;103.32;18.13;;;;;;;8.36;100.00;101135.72;4959366;28;20046;-81
2022/12/25 00:57:29;;;;;;;80.55;17.92;;;;;;;8.34;100.00;101130.34;4996690;28;20034;-82
2022/12/25 00:59:55;;;;;;;87.25;18.17;;;;;;;8.34;100.00;101132.22;4981697;28;20060;-82
2022/12/25 01:02:23;;;;;;;86.18;17.25;;;;;;;8.40;100.00;101137.28;4980729;28;20078;-82
2022/12/25 01:04:54;;;;;;;90.68;16.13;;;;;;;8.46;100.00;101137.78;4981702;28;20042;-82
2022/12/25 01:07:21;;;;;;;70.68;16.02;;;;;;;8.40;100.00;101135.41;4996518;28;20473;-82
2022/12/25 01:12:34;;;;;;;67.10;15.70;;;;;;;8.45;100.00;101129.69;4997809;28;20069;-81
2022/12/25 01:14:59;;;;;;;91.90;17.02;;;;;;;8.39;100.00;101124.59;4984519;28;20035;-81
2022/12/25 01:17:25;;;;;;;91.95;16.65;;;;;;;8.48;100.00;101121.31;4998907;28;20088;-82
2022/12/25 01:19:51;;;;;;;91.40;16.80;;;;;;;8.51;100.00;101106.56;4979634;28;20041;-81
2022/12/25 01:22:16;;;;;;;64.57;16.00;;;;;;;8.50;100.00;101113.88;4965555;28;20353;-81
2022/12/25 01:24:43;;;;;;;80.38;16.77;;;;;;;8.53;100.00;101105.50;4981931;28;20042;-82
2022/12/25 01:27:09;;;;;;;70.68;16.13;;;;;;;8.52;100.00;101117.38;4979387;28;20477;-81
2022/12/25 01:29:34;;;;;;;68.43;18.10;;;;;;;8.48;100.00;101104.94;4990737;28;20035;-82
2022/12/25 01:32:00;;;;;;;81.78;17.38;;;;;;;8.54;100.00;101120.00;4978752;28;20045;-81
2022/12/25 01:34:25;;;;;;;79.20;16.42;;;;;;;8.47;100.00;101111.34;4991655;28;20073;-82
2022/12/25 01:36:50;;;;;;;79.57;17.25;;;;;;;8.49;100.00;101123.03;4977979;28;20117;-81
2022/12/25 01:39:16;;;;;;;89.43;16.90;;;;;;;8.52;100.00;101132.88;4977517;28;20039;-82
2022/12/25 01:41:41;;;;;;;77.82;14.85;;;;;;;8.47;100.00;101133.19;4989732;28;20065;-82
2022/12/25 01:44:35;;;;;;;79.15;16.90;;;;;;;8.46;100.00;101145.06;4996004;28;20463;-81
2022/12/25 01:47:05;;;;;;;84.20;16.58;;;;;;;8.54;100.00;101142.72;4996379;28;20054;-81
2022/12/25 01:49:33;;;;;;;62.88;14.52;;;;;;;8.54;100.00;101137.25;4997203;28;21085;-82
2022/12/25 01:52:09;;;;;;;79.00;16.75;;;;;;;8.57;100.00;101139.78;4997495;28;20061;-81
2022/12/25 01:54:58;;;;;;;100.45;16.55;;;;;;;8.51;100.00;101140.22;4997920;28;20038;-81
2022/12/25 01:57:34;;;;;;;74.22;16.85;;;;;;;8.45;100.00;101152.38;4972315;28;20042;-81
2022/12/25 02:00:01;;;;;;;83.15;15.07;;;;;;;8.44;100.00;101147.94;4987321;28;20038;-81
2022/12/25 02:02:28;;;;;;;85.63;16.83;;;;;;;8.45;100.00;101146.06;4995985;28;20034;-81
2022/12/25 02:04:58;;;;;;;64.60;16.45;;;;;;;8.50;100.00;101153.94;4987141;28;20035;-81
2022/12/25 02:07:26;;;;;;;72.43;15.70;;;;;;;8.55;100.00;101151.78;4970258;28;20039;-81
2022/12/25 02:09:52;;;;;;;69.65;15.82;;;;;;;8.55;100.00;101154.53;4961960;28;20050;-81
2022/12/25 02:12:25;;;;;;;77.97;16.27;;;;;;;8.61;100.00;101156.84;4991577;28;20045;-81
2022/12/25 02:14:53;;;;;;;81.60;17.00;;;;;;;8.58;100.00;101152.47;4995926;28;20470;-81
2022/12/25 02:17:57;;;;;;;78.90;15.63;;;;;;;8.58;100.00;101157.91;4984175;28;20047;-81
2022/12/25 02:20:41;;;;;;;64.07;15.40;;;;;;;8.54;100.00;101169.13;4961273;28;20454;-81
2022/12/25 02:23:22;;;;;;;73.13;16.25;;;;;;;8.53;100.00;101165.53;4974456;28;20157;-81
2022/12/25 02:25:50;;;;;;;71.53;14.52;;;;;;;8.51;100.00;101172.97;4993361;28;20054;-81
2022/12/25 02:28:24;;;;;;;83.75;15.75;;;;;;;8.54;100.00;101158.22;4997109;28;20034;-81
2022/12/25 02:30:59;;;;;;;74.95;17.20;;;;;;;8.50;100.00;101149.38;4993962;28;20034;-81
2022/12/25 02:34:02;;;;;;;63.05;14.43;;;;;;;8.54;100.00;101163.66;4980072;28;20057;-81
2022/12/25 02:36:43;;;;;;;65.72;15.38;;;;;;;8.50;100.00;101163.00;4997003;28;20039;-81
2022/12/25 02:42:06;;;;;;;72.97;16.63;;;;;;;8.57;100.00;101160.75;4995665;28;20045;-81
2022/12/25 03:07:18;;;;;;;75.57;16.67;;;;;;;8.57;100.00;101133.47;4995820;28;20049;-81
2022/12/25 03:12:55;;;;;;;71.05;15.20;;;;;;;8.45;100.00;101119.63;4992500;28;20042;-81
2022/12/25 03:18:12;;;;;;;78.38;15.60;;;;;;;8.33;100.00;101117.72;4995753;28;20548;-81
2022/12/25 03:28:56;;;;;;;87.40;16.60;;;;;;;8.18;100.00;101095.03;4991524;28;20034;-81
2022/12/25 03:31:29;;;;;;;104.93;18.52;;;;;;;8.15;100.00;101084.31;4994212;28;20104;-80
2022/12/25 04:37:58;;;;;;;60.90;15.50;;;;;;;7.88;100.00;101040.63;4996661;28;20038;-81
2022/12/25 04:40:24;;;;;;;62.95;15.10;;;;;;;7.92;100.00;101047.66;4995940;28;20038;-81
2022/12/25 04:42:50;;;;;;;87.70;17.38;;;;;;;7.94;100.00;101053.00;4979048;28;20133;-81
2022/12/25 04:45:17;;;;;;;54.78;14.38;;;;;;;7.88;100.00;101055.13;4980391;28;20100;-81
2022/12/25 04:47:42;;;;;;;74.72;15.45;;;;;;;7.89;100.00;101054.16;4983250;28;20050;-82
2022/12/25 04:50:08;;;;;;;65.78;16.55;;;;;;;7.91;100.00;101051.34;5001098;28;20034;-81
2022/12/25 04:52:39;;;;;;;70.15;17.23;;;;;;;7.85;100.00;101049.00;4981589;28;20043;-81
2022/12/25 04:55:06;;;;;;;94.13;16.10;;;;;;;7.95;100.00;101057.47;4975827;28;20034;-81
2022/12/25 04:57:31;;;;;;;67.28;15.32;;;;;;;7.95;100.00;101047.44;4981976;28;20121;-81
2022/12/25 04:59:57;;;;;;;68.25;16.17;;;;;;;8.01;100.00;101049.75;5000126;28;20076;-81
2022/12/25 05:02:22;;;;;;;67.13;16.27;;;;;;;8.04;100.00;101046.84;4994877;28;20039;-82
2022/12/25 05:04:48;;;;;;;63.92;15.57;;;;;;;7.98;100.00;101052.69;4980555;28;20041;-82
2022/12/25 05:07:13;;;;;;;71.47;15.50;;;;;;;7.99;100.00;101050.84;4961407;28;20544;-81
2022/12/25 05:09:40;;;;;;;72.80;15.20;;;;;;;7.97;100.00;101050.06;4999213;28;20053;-81
2022/12/25 05:12:10;;;;;;;64.53;15.80;;;;;;;7.99;100.00;101031.75;4964073;28;20089;-82
2022/12/25 05:14:35;;;;;;;66.75;15.23;;;;;;;8.01;100.00;101040.72;4994286;28;20133;-81
2022/12/25 05:17:01;;;;;;;69.18;16.08;;;;;;;8.03;100.00;101034.16;4993225;28;20064;-81
2022/12/25 05:19:26;;;;;;;62.40;14.77;;;;;;;7.95;100.00;101022.88;4966198;28;20034;-81
2022/12/25 05:21:53;;;;;;;76.28;15.02;;;;;;;8.09;100.00;101031.03;4998123;28;20038;-80
2022/12/25 05:24:19;;;;;;;65.90;14.73;;;;;;;8.17;100.00;101024.22;4976123;28;20500;-80
2022/12/25 05:26:44;;;;;;;61.03;14.40;;;;;;;8.21;100.00;101025.75;4992388;28;20077;-81
2022/12/25 05:29:10;;;;;;;51.97;15.35;;;;;;;8.15;100.00;101010.69;4983498;28;20033;-82
2022/12/25 05:31:35;;;;;;;52.90;13.25;;;;;;;8.13;100.00;101020.81;4998730;28;20034;-81
2022/12/25 05:34:01;;;;;;;52.88;12.88;;;;;;;8.18;100.00;101024.13;4982991;28;20591;-80
2022/12/25 05:36:26;;;;;;;73.78;14.82;;;;;;;8.23;100.00;101021.06;4998946;28;20110;-81
2022/12/25 05:38:51;;;;;;;53.53;13.30;;;;;;;8.15;100.00;101013.41;4998354;28;20034;-82
2022/12/25 05:41:17;;;;;;;49.28;13.07;;;;;;;8.14;100.00;100978.94;4990778;28;20046;-81
2022/12/25 05:43:44;;;;;;;61.67;13.35;;;;;;;8.25;100.00;101002.78;4998235;28;20042;-81
2022/12/25 05:46:11;;;;;;;49.55;13.18;;;;;;;8.31;100.00;100991.41;4998505;28;20115;-81
2022/12/25 05:48:37;;;;;;;49.95;14.60;;;;;;;8.33;100.00;100996.78;4980399;28;20043;-81
2022/12/25 05:51:09;;;;;;;55.80;13.45;;;;;;;8.36;100.00;101007.47;4973720;28;20486;-81
2022/12/25 05:53:34;;;;;;;51.22;11.57;;;;;;;8.40;100.00;101001.72;4998840;28;20398;-81
2022/12/25 05:56:02;;;;;;;53.80;12.85;;;;;;;8.35;100.00;101005.75;4953432;28;20026;-80
2022/12/25 05:58:32;;;;;;;62.25;13.02;;;;;;;8.41;100.00;101008.03;4999928;28;20068;-81
2022/12/25 06:00:58;;;;;;;55.08;12.98;;;;;;;8.35;100.00;100995.69;4995084;28;20378;-81
2022/12/25 06:03:24;;;;;;;68.82;13.73;;;;;;;8.48;100.00;101005.81;4981908;28;20038;-81
2022/12/25 06:05:49;;;;;;;56.13;14.43;;;;;;;8.50;100.00;101009.31;4994551;28;20034;-81
2022/12/25 06:08:15;;;;;;;66.38;14.60;;;;;;;8.50;100.00;100999.28;5005226;28;20043;-81
2022/12/25 06:10:40;;;;;;;59.88;15.38;;;;;;;8.45;100.00;100982.34;4994057;28;20073;-80
2022/12/25 06:13:06;;;;;;;48.78;13.73;;;;;;;8.49;100.00;100989.31;4980872;28;20034;-81
2022/12/25 06:15:32;;;;;;;59.17;13.50;;;;;;;8.49;100.00;100991.19;4991686;28;20077;-81
2022/12/25 06:18:01;;;;;;;55.88;13.60;;;;;;;8.45;100.00;100982.34;4969525;28;20490;-81
2022/12/25 06:20:30;;;;;;;54.47;13.05;;;;;;;8.55;100.00;100974.41;4988912;28;20057;-82
2022/12/25 06:22:55;;;;;;;48.28;12.48;;;;;;;8.57;100.00;100967.84;4998747;28;20489;-82
2022/12/25 06:25:22;;;;;;;48.55;11.88;;;;;;;8.50;100.00;100955.63;4971186;28;20035;-82
2022/12/25 06:27:47;;;;;;;41.85;12.43;;;;;;;8.58;100.00;100953.22;4981842;28;20106;-82
2022/12/25 06:30:13;;;;;;;58.30;12.05;;;;;;;8.59;100.00;100949.53;4997669;28;20046;-82
2022/12/25 06:32:38;;;;;;;61.92;11.02;;;;;;;8.62;100.00;100962.06;4985611;28;20051;-81
2022/12/25 06:35:04;;;;;;;42.42;10.95;;;;;;;8.59;100.00;100949.53;4978186;28;20046;-81
2022/12/25 06:37:30;;;;;;;39.45;9.18;;;;;;;8.70;100.00;100953.38;4983536;28;20082;-81
2022/12/25 06:39:55;;;;;;;40.47;10.15;;;;;;;8.67;100.00;100970.81;4989835;28;20034;-82
2022/12/25 06:42:21;;;;;;;27.27;7.82;;;;;;;8.73;100.00;100967.66;4985750;28;20042;-82
2022/12/25 06:44:46;;;;;;;28.35;7.70;;;;;;;8.70;100.00;100958.81;4990463;28;20035;-82
2022/12/25 06:47:12;;;;;;;31.52;8.80;;;;;;;8.69;100.00;100943.41;4992914;28;20055;-81
2022/12/25 06:49:37;;;;;;;40.63;8.10;;;;;;;8.74;100.00;100939.41;4987188;28;20034;-81
2022/12/25 06:52:03;;;;;;;29.48;7.68;;;;;;;8.70;100.00;100931.53;4971954;28;20129;-81
2022/12/25 06:54:28;;;;;;;28.10;7.63;;;;;;;8.74;100.00;100916.66;4960768;28;20039;-81
2022/12/25 06:56:54;;;;;;;31.20;7.20;;;;;;;8.80;100.00;100916.22;4979072;28;20039;-82
2022/12/25 06:59:19;;;;;;;34.13;7.40;;;;;;;8.76;100.00;100914.72;4986955;28;20038;-81
2022/12/25 07:01:51;;;;;;;27.55;6.97;;;;;;;8.72;100.00;100896.78;4995268;28;20064;-82
2022/12/25 07:04:26;;;;;;;32.95;6.68;;;;;;;8.74;100.00;100889.38;4977291;28;20142;-82
2022/12/25 07:06:52;;;;;;;32.45;7.65;;;;;;;8.73;100.00;100882.19;5004632;28;20068;-82
2022/12/25 07:09:18;;;;;;;29.98;7.05;;;;;;;8.84;100.00;100887.75;4979479;28;20042;-81
2022/12/25 07:11:43;;;;;;;27.42;7.43;;;;;;;8.78;100.00;100890.91;4997588;28;20389;-82
2022/12/25 07:14:17;;;;;;;37.50;7.85;;;;;;;8.79;100.00;100895.41;4944942;28;20037;-81
2022/12/25 07:16:43;;;;;;;24.70;6.55;;;;;;;8.66;100.00;100873.56;4981307;28;20040;-81
2022/12/25 07:19:08;;;;;;;34.47;6.40;;;;;;;8.77;100.00;100892.78;4997675;28;20034;-81
2022/12/25 07:21:34;;;;;;;31.02;6.30;;;;;;;8.76;100.00;100887.41;4980530;28;20042;-82
2022/12/25 07:23:59;;;;;;;21.02;6.25;;;;;;;8.74;100.00;100890.25;4964698;28;20053;-82
2022/12/25 07:26:25;;;;;;;26.75;6.55;;;;;;;8.77;100.00;100902.78;4980882;28;20058;-82
2022/12/25 07:28:51;;;;;;;31.33;7.15;;;;;;;8.61;100.00;100879.34;4996451;28;20115;-83
2022/12/25 07:31:17;;;;;;;23.70;6.60;;;;;;;8.73;100.00;100909.47;4975415;28;20054;-82
2022/12/25 07:33:43;;;;;;;21.17;6.68;;;;;;;8.69;100.00;100917.00;4996370;28;20037;-83
2022/12/25 07:36:10;;;;;;;24.20;6.13;;;;;;;8.70;100.00;100918.75;4993942;28;20050;-81
2022/12/25 07:38:36;;;;;;;39.50;8.15;;;;;;;8.76;100.00;100925.63;4996817;28;20039;-82
2022/12/25 07:41:01;;;;;;;19.50;5.30;;;;;;;8.68;100.00;100906.19;4980092;28;20027;-82
2022/12/25 07:43:30;;;;;;;22.83;5.80;;;;;;;8.75;100.00;100908.38;4965831;28;20134;-83
2022/12/25 07:45:57;;;;;;;36.88;5.88;;;;;;;8.72;100.00;100921.38;4964593;28;20060;-81
2022/12/25 07:48:24;;;;;;;28.30;5.68;;;;;;;8.70;100.00;100916.00;4980681;28;20062;-81
2022/12/25 07:51:02;;;;;;;33.45;6.20;;;;;;;8.71;100.00;100900.53;4986816;28;20374;-82
2022/12/25 07:53:29;;;;;;;20.55;6.30;;;;;;;8.71;100.00;100906.00;5006651;28;20038;-82
2022/12/25 07:55:56;;;;;;;21.00;5.72;;;;;;;8.74;100.00;100908.47;4987414;28;20063;-81
2022/12/25 07:58:21;;;;;;;34.38;6.00;;;;;;;8.72;100.00;100902.25;4969190;28;20031;-81
2022/12/25 08:00:47;;;;;;;25.70;5.53;;;;;;;8.64;100.00;100905.50;4994986;28;20442;-82
2022/12/25 08:03:14;;;;;;;22.15;6.05;;;;;;;8.68;100.00;100906.19;4997378;28;20038;-82
2022/12/25 08:05:40;;;;;;;31.20;6.30;;;;;;;8.69;100.00;100902.47;4992776;28;20042;-81
2022/12/25 08:08:05;;;;;;;26.50;6.93;;;;;;;8.76;100.00;100923.78;4985374;28;20065;-81
2022/12/25 08:10:30;;;;;;;35.40;6.25;;;;;;;8.84;100.00;100939.63;4980477;28;20482;-81
2022/12/25 08:12:57;;;;;;;25.88;7.15;;;;;;;8.85;100.00;100935.88;4997852;28;20037;-81
2022/12/25 08:15:22;;;;;;;31.10;6.55;;;;;;;8.81;100.00;100942.56;4965233;28;20054;-81
2022/12/25 08:17:48;;;;;;;39.10;6.53;;;;;;;8.81;100.00;100945.28;4993800;28;20049;-81
2022/12/25 08:20:13;;;;;;;20.80;6.38;;;;;;;8.79;100.00;100953.59;4961218;28;20061;-81
2022/12/25 08:22:39;;;;;;;30.77;7.13;;;;;;;8.73;100.00;100959.47;4992499;28;20061;-82
2022/12/25 08:25:04;;;;;;;24.63;7.20;;;;;;;8.70;100.00;100970.59;4995683;28;20084;-82
2022/12/25 08:27:30;;;;;;;29.95;7.15;;;;;;;8.69;100.00;100966.16;4995325;28;20057;-82
2022/12/25 08:29:55;;;;;;;34.15;6.82;;;;;;;8.80;100.00;100974.44;4998540;28;20065;-81
2022/12/25 08:32:21;;;;;;;34.80;7.30;;;;;;;8.83;100.00;100963.31;4987593;28;20122;-83
2022/12/25 08:34:46;;;;;;;21.50;6.07;;;;;;;8.89;100.00;100952.97;5000479;28;20409;-82
2022/12/25 08:37:12;;;;;;;23.95;5.95;;;;;;;8.95;100.00;100944.31;4998690;28;20109;-82
2022/12/25 08:39:37;;;;;;;27.38;6.80;;;;;;;8.98;100.00;100925.84;4963121;28;20672;-83
2022/12/25 08:42:03;;;;;;;30.02;7.10;;;;;;;8.99;100.00;100943.97;4983427;28;20038;-82
2022/12/25 08:44:29;;;;;;;27.30;6.43;;;;;;;8.78;100.00;100940.06;4983756;28;20045;-82
2022/12/25 08:46:54;;;;;;;28.00;6.47;;;;;;;8.89;100.00;100972.94;4957257;28;20061;-82
2022/12/25 08:49:20;;;;;;;24.58;6.28;;;;;;;8.77;100.00;100952.84;4999150;28;20045;-83
2022/12/25 08:51:45;;;;;;;30.60;6.40;;;;;;;8.81;100.00;100969.88;4986998;28;20046;-83
2022/12/25 08:54:11;;;;;;;31.23;7.20;;;;;;;8.87;100.00;100990.38;4967854;28;20445;-82
2022/12/25 08:56:37;;;;;;;26.27;7.15;;;;;;;8.85;100.00;100986.91;5001532;28;20038;-81
2022/12/25 08:59:03;;;;;;;30.63;8.35;;;;;;;8.91;100.00;100984.63;4968879;28;20512;-81
2022/12/25 09:01:29;;;;;;;26.50;7.78;;;;;;;8.86;100.00;100975.00;4982488;28;20068;-81
2022/12/25 09:03:54;;;;;;;32.80;7.53;;;;;;;8.78;100.00;100972.81;4984384;28;20030;-82
2022/12/25 09:06:19;;;;;;;38.83;8.20;;;;;;;8.81;100.00;100970.72;4982944;28;20077;-83
2022/12/25 09:08:45;;;;;;;32.20;7.40;;;;;;;8.85;100.00;100971.38;4984253;28;20035;-83
2022/12/25 09:11:12;;;;;;;35.58;9.65;;;;;;;8.91;100.00;100962.78;4999053;28;20037;-82
2022/12/25 09:13:38;;;;;;;39.05;10.38;;;;;;;8.82;100.00;100949.75;4994631;28;20042;-81
2022/12/25 09:16:10;;;;;;;33.55;10.68;;;;;;;8.78;100.00;100931.84;4981960;28;20094;-83
2022/12/25 09:18:36;;;;;;;43.47;12.23;;;;;;;8.73;100.00;100917.66;4995939;28;20413;-81
2022/12/25 09:21:08;;;;;;;40.50;12.13;;;;;;;8.74;100.00;100917.56;4981059;28;20134;-81
2022/12/25 09:23:34;;;;;;;46.50;10.85;;;;;;;8.73;100.00;100948.56;4976974;28;20038;-82
2022/12/25 09:26:01;;;;;;;46.95;12.32;;;;;;;8.70;100.00;100943.31;4998702;28;20030;-80
2022/12/25 09:28:31;;;;;;;42.08;11.80;;;;;;;8.66;100.00;100941.78;4968289;28;20482;-79
2022/12/25 09:30:57;;;;;;;39.88;11.02;;;;;;;8.72;100.00;100954.97;5022654;28;20028;-80
2022/12/25 09:33:23;;;;;;;27.38;9.68;;;;;;;8.75;100.00;100954.78;4999561;28;20038;-80
2022/12/25 09:35:57;;;;;;;33.28;10.68;;;;;;;8.76;100.00;100944.75;4997039;28;20537;-81
2022/12/25 09:38:23;;;;;;;46.10;10.38;;;;;;;8.74;100.00;100949.41;4992833;28;20030;-82
2022/12/25 09:41:11;;;;;;;34.97;9.70;;;;;;;8.76;100.00;100962.00;5003430;28;20026;-80
2022/12/25 09:43:41;;;;;;;44.88;11.10;;;;;;;8.72;100.00;100957.72;5004521;28;20393;-81
2022/12/25 09:46:14;;;;;;;33.25;10.45;;;;;;;8.80;100.00;100936.22;4980861;28;20070;-80
2022/12/25 09:48:44;;;;;;;42.45;12.20;;;;;;;8.87;100.00;100914.84;4997525;28;20034;-81
2022/12/25 09:51:13;;;;;;;33.72;11.60;;;;;;;8.78;100.00;100930.00;4994221;28;20030;-81
2022/12/25 09:53:44;;;;;;;38.13;11.88;;;;;;;8.72;100.00;100919.50;4996859;28;20056;-81
2022/12/25 09:56:16;;;;;;;44.83;12.55;;;;;;;8.67;100.00;100929.88;4996525;28;20037;-81
2022/12/25 09:58:42;;;;;;;49.85;12.70;;;;;;;8.63;100.00;100931.94;4985553;28;20042;-80
2022/12/25 10:01:32;;;;;;;45.13;13.98;;;;;;;8.69;100.00;100933.38;4994394;28;20051;-81
2022/12/25 10:04:02;;;;;;;44.35;15.68;;;;;;;8.62;100.00;100910.22;4992291;28;20039;-82
2022/12/25 10:06:56;;;;;;;88.40;20.65;;;;;;;8.64;100.00;100891.88;4989125;28;20576;-81
2022/12/25 10:09:30;;;;;;;;;;;;;;;8.67;100.00;100896.25;4999147;28;20046;-81
2022/12/25 10:11:58;;;;;;;71.93;20.55;;;;;;;8.69;100.00;100887.00;4996382;28;19920;-80
2022/12/25 10:14:38;;;;;;;83.63;18.80;;;;;;;8.63;100.00;100893.72;5003112;28;20489;-81
2022/12/25 10:17:14;;;;;;;56.15;16.52;;;;;;;8.64;100.00;100902.78;4978877;28;20045;-81
2022/12/25 10:19:47;;;;;;;59.88;13.95;;;;;;;8.69;100.00;100899.75;4977590;28;20099;-80
2022/12/25 10:22:22;;;;;;;43.00;12.52;;;;;;;8.61;100.00;100905.75;4993561;28;20046;-81
2022/12/25 10:24:51;;;;;;;52.40;11.82;;;;;;;8.64;100.00;100890.03;4993995;28;20045;-80
2022/12/25 10:27:28;;;;;;;50.85;13.23;;;;;;;8.62;100.00;100886.56;4984050;28;20041;-80
2022/12/25 10:29:53;;;;;;;41.28;12.52;;;;;;;8.59;100.00;100885.88;4991574;28;20134;-81
2022/12/25 10:32:19;;;;;;;50.42;14.07;;;;;;;8.57;100.00;100874.19;5006369;28;20065;-80
2022/12/25 10:34:45;;;;;;;46.03;12.75;;;;;;;8.62;100.00;100892.00;4964000;28;20405;-80
2022/12/25 10:37:11;;;;;;;40.35;12.50;;;;;;;8.71;100.00;100873.22;5000823;28;20523;-81
2022/12/25 10:39:37;;;;;;;35.20;11.45;;;;;;;8.68;100.00;100859.78;4985384;28;20042;-82
2022/12/25 10:42:25;;;;;;;55.10;13.75;;;;;;;8.77;100.00;100875.50;5000203;28;20492;-82
2022/12/25 10:45:06;;;;;;;44.33;12.80;;;;;;;8.75;100.00;100867.41;5000861;28;20061;-81
2022/12/25 10:47:36;;;;;;;43.53;12.18;;;;;;;8.79;100.00;100870.81;4998195;28;20418;-81
2022/12/25 10:50:11;;;;;;;48.28;11.50;;;;;;;8.79;100.00;100871.69;4999487;28;20041;-82
2022/12/25 10:52:58;;;;;;;57.90;13.55;;;;;;;8.95;100.00;100876.94;4999551;28;20038;-82
2022/12/25 10:55:23;;;;;;;44.35;11.90;;;;;;;8.98;100.00;100873.09;4982744;28;20424;-82
2022/12/25 10:57:49;;;;;;;49.20;13.13;;;;;;;8.95;100.00;100857.81;4984254;28;20034;-80
2022/12/25 11:00:20;;;;;;;51.47;13.32;;;;;;;9.02;100.00;100856.38;4976758;28;20045;-82
2022/12/25 11:02:45;;;;;;;48.95;13.02;;;;;;;9.07;100.00;100850.59;5004356;28;20525;-80
2022/12/25 11:05:30;;;;;;;54.65;14.07;;;;;;;9.02;100.00;100829.06;4997190;28;20117;-80
2022/12/25 11:07:58;;;;;;;48.58;12.65;;;;;;;8.98;100.00;100808.41;5004011;28;20057;-81
2022/12/25 11:10:32;;;;;;;54.95;13.48;;;;;;;9.06;100.00;100799.66;4994986;28;20104;-79
2022/12/25 11:13:00;;;;;;;55.92;15.93;;;;;;;9.06;100.00;100798.81;4998087;28;20117;-80
2022/12/25 11:15:40;;;;;;;61.80;13.77;;;;;;;9.06;100.00;100802.41;4991016;28;20045;-81
2022/12/25 11:18:26;;;;;;;60.13;13.93;;;;;;;9.10;100.00;100798.47;4994537;28;20048;-81
2022/12/25 11:21:18;;;;;;;69.15;14.60;;;;;;;8.99;100.00;100792.91;4983835;28;20045;-81
2022/12/25 11:23:54;;;;;;;61.72;14.75;;;;;;;9.04;100.00;100812.56;4978879;28;20050;-82
2022/12/25 11:26:22;;;;;;;69.32;18.05;;;;;;;9.10;100.00;100811.22;4993331;28;20116;-80
2022/12/25 11:28:51;;;;;;;59.28;18.25;;;;;;;9.08;100.00;100814.06;4989418;28;20041;-81
2022/12/25 11:31:19;;;;;;;70.53;18.00;;;;;;;9.17;100.00;100804.34;4980218;28;20026;-80
2022/12/25 11:33:52;;;;;;;75.45;19.02;;;;;;;9.18;100.00;100782.38;4994353;28;20026;-82
2022/12/25 11:36:43;;;;;;;75.35;20.17;;;;;;;9.15;100.00;100768.94;4994762;28;20087;-81
2022/12/25 11:39:23;;;;;;;66.75;18.88;;;;;;;9.07;100.00;100765.03;4972561;28;20039;-80
2022/12/25 11:41:55;;;;;;;61.28;16.65;;;;;;;8.96;100.00;100763.09;4989463;28;20056;-79
2022/12/25 11:44:42;;;;;;;68.85;17.50;;;;;;;9.02;100.00;100773.59;4994208;28;20061;-81
2022/12/25 11:47:17;;;;;;;71.13;17.77;;;;;;;9.05;100.00;100767.91;4996043;28;20058;-81
2022/12/25 11:50:12;;;;;;;60.78;18.42;;;;;;;8.99;100.00;100754.69;4990987;28;20150;-80
2022/12/25 11:52:44;;;;;;;76.90;19.77;;;;;;;9.07;100.00;100752.25;4991207;28;20121;-81
2022/12/25 11:55:21;;;;;;;62.43;17.83;;;;;;;9.14;100.00;100761.72;4993752;28;20563;-80
2022/12/25 11:57:54;;;;;;;74.65;19.05;;;;;;;9.05;100.00;100769.72;4977652;28;20035;-82
2022/12/25 12:00:19;;;;;;;71.25;17.10;;;;;;;9.00;100.00;100761.88;4991933;28;20045;-81
2022/12/25 12:03:22;;;;;;;78.80;19.58;;;;;;;9.04;100.00;100754.34;4998132;28;20046;-81
2022/12/25 12:06:11;;;;;;;84.22;18.52;;;;;;;9.10;100.00;100749.31;5010315;28;20050;-80
2022/12/25 12:08:40;;;;;;;79.03;19.98;;;;;;;9.10;100.00;100751.13;4986646;28;20045;-81
2022/12/25 12:11:30;;;;;;;84.00;21.83;;;;;;;9.12;100.00;100751.91;4992901;28;20113;-82
2022/12/25 12:14:18;;;;;;;86.95;20.77;;;;;;;9.19;100.00;100743.13;4983806;28;20057;-81
2022/12/25 12:16:44;;;;;;;82.60;20.02;;;;;;;9.15;100.00;100738.00;4980880;28;20497;-81
2022/12/25 12:19:29;;;;;;;94.75;19.48;;;;;;;9.14;100.00;100734.41;4989250;28;20037;-81
2022/12/25 12:21:58;;;;;;;79.93;20.15;;;;;;;9.05;100.00;100732.41;4986141;28;20494;-81
2022/12/25 12:24:47;;;;;;;85.82;20.92;;;;;;;9.22;100.00;100735.72;4984796;28;20423;-81
2022/12/25 12:27:30;;;;;;;90.47;20.60;;;;;;;9.20;100.00;100725.75;4992033;28;20061;-82
2022/12/25 12:29:59;;;;;;;72.78;19.08;;;;;;;9.25;100.00;100722.69;4977691;28;20097;-82
2022/12/25 12:32:36;;;;;;;98.47;19.58;;;;;;;9.32;100.00;100721.22;5006345;28;20026;-82
2022/12/25 12:35:24;;;;;;;73.70;19.15;;;;;;;9.21;100.00;100712.97;4993286;28;20091;-81
2022/12/25 12:37:58;;;;;;;80.25;19.63;;;;;;;9.21;100.00;100704.78;4994842;28;20057;-80
2022/12/25 12:40:29;;;;;;;78.63;20.83;;;;;;;9.39;100.00;100702.50;4985195;28;20478;-81
2022/12/25 12:42:56;;;;;;;91.27;22.33;;;;;;;9.37;100.00;100694.41;4989314;28;20031;-81
2022/12/25 12:45:36;;;;;;;103.85;24.60;;;;;;;9.28;100.00;100700.59;4975381;28;20092;-82
2022/12/25 12:48:14;;;;;;;117.88;25.88;;;;;;;9.24;100.00;100710.00;5006602;28;20038;-81
2022/12/25 12:50:41;;;;;;;90.55;23.77;;;;;;;9.22;100.00;100697.47;4997957;28;20030;-80
2022/12/25 12:53:16;;;;;;;112.05;25.10;;;;;;;9.29;100.00;100699.59;4993425;28;20108;-80
2022/12/25 12:55:41;;;;;;;94.65;23.05;;;;;;;9.30;100.00;100693.16;5011202;28;20030;-79
2022/12/25 12:58:22;;;;;;;102.70;21.58;;;;;;;9.31;100.00;100692.19;4981223;28;20034;-81
2022/12/25 13:00:59;;;;;;;97.80;21.83;;;;;;;9.27;100.00;100690.66;4999380;28;20061;-81
2022/12/25 13:03:28;;;;;;;92.18;20.08;;;;;;;9.33;100.00;100682.00;4997444;28;20107;-80
2022/12/25 13:05:59;;;;;;;84.85;20.67;;;;;;;9.26;100.00;100679.84;4999128;28;20085;-81
2022/12/25 13:09:20;;;;;;;88.63;21.30;;;;;;;9.24;100.00;100687.28;4994958;28;20514;-82
2022/12/25 13:11:46;;;;;;;94.15;22.60;;;;;;;9.29;100.00;100676.88;4973926;28;20081;-81